sensor_id;sensor_type;location;lat;lon;timestamp;P1;durP1;ratioP1;P2;durP2;ratioP2
37609;SDS011;23457;51.966;8.230;2023-05-10T00:00:59;18.05;;;14.50;;
37609;SDS011;23457;51.966;8.230;2023-05-10T00:03:25;21.10;;;15.75;;
37609;SDS011;23457;51.966;8.230;2023-05-10T00:05:52;17.05;;;13.73;;
37609;SDS011;23457;51.966;8.230;2023-05-10T00:08:19;16.10;;;13.48;;
37609;SDS011;23457;51.966;8.230;2023-05-10T00:10:45;17.90;;;13.80;;
37609;SDS011;23457;51.966;8.230;2023-05-10T00:13:12;16.33;;;13.32;;
37609;SDS011;23457;51.966;8.230;2023-05-10T00:15:39;17.27;;;13.02;;
37609;SDS011;23457;51.966;8.230;2023-05-10T00:18:06;15.02;;;13.13;;
37609;SDS011;23457;51.966;8.230;2023-05-10T00:20:33;15.48;;;12.57;;
37609;SDS011;23457;51.966;8.230;2023-05-10T00:22:59;16.88;;;13.02;;
37609;SDS011;23457;51.966;8.230;2023-05-10T00:25:26;17.77;;;13.60;;
37609;SDS011;23457;51.966;8.230;2023-05-10T00:27:53;16.90;;;13.32;;
37609;SDS011;23457;51.966;8.230;2023-05-10T00:30:21;17.75;;;14.25;;
37609;SDS011;23457;51.966;8.230;2023-05-10T00:32:48;18.00;;;14.43;;
37609;SDS011;23457;51.966;8.230;2023-05-10T00:35:16;18.33;;;13.95;;
37609;SDS011;23457;51.966;8.230;2023-05-10T00:37:42;17.88;;;13.45;;
37609;SDS011;23457;51.966;8.230;2023-05-10T00:40:10;16.15;;;13.60;;
37609;SDS011;23457;51.966;8.230;2023-05-10T00:42:38;18.23;;;14.88;;
37609;SDS011;23457;51.966;8.230;2023-05-10T00:45:06;19.27;;;16.05;;
37609;SDS011;23457;51.966;8.230;2023-05-10T00:47:34;20.88;;;16.15;;
37609;SDS011;23457;51.966;8.230;2023-05-10T00:50:01;20.92;;;16.00;;
37609;SDS011;23457;51.966;8.230;2023-05-10T00:52:28;18.95;;;15.57;;
37609;SDS011;23457;51.966;8.230;2023-05-10T00:54:57;21.75;;;16.80;;
37609;SDS011;23457;51.966;8.230;2023-05-10T00:57:24;21.38;;;16.40;;
37609;SDS011;23457;51.966;8.230;2023-05-10T00:59:51;19.80;;;15.85;;
37609;SDS011;23457;51.966;8.230;2023-05-10T01:02:18;21.58;;;17.80;;
37609;SDS011;23457;51.966;8.230;2023-05-10T01:04:45;21.77;;;17.60;;
37609;SDS011;23457;51.966;8.230;2023-05-10T01:07:12;22.83;;;18.45;;
37609;SDS011;23457;51.966;8.230;2023-05-10T01:09:39;24.85;;;17.65;;
37609;SDS011;23457;51.966;8.230;2023-05-10T01:12:06;24.23;;;18.05;;
37609;SDS011;23457;51.966;8.230;2023-05-10T01:14:33;24.42;;;19.33;;
37609;SDS011;23457;51.966;8.230;2023-05-10T01:17:03;27.80;;;19.45;;
37609;SDS011;23457;51.966;8.230;2023-05-10T01:19:32;26.13;;;20.17;;
37609;SDS011;23457;51.966;8.230;2023-05-10T01:25:09;27.65;;;18.88;;
37609;SDS011;23457;51.966;8.230;2023-05-10T01:36:23;21.65;;;17.65;;
37609;SDS011;23457;51.966;8.230;2023-05-10T01:41:51;18.10;;;14.45;;
37609;SDS011;23457;51.966;8.230;2023-05-10T01:44:31;16.37;;;13.33;;
37609;SDS011;23457;51.966;8.230;2023-05-10T01:49:50;12.87;;;10.93;;
37609;SDS011;23457;51.966;8.230;2023-05-10T01:52:29;16.50;;;11.30;;
37609;SDS011;23457;51.966;8.230;2023-05-10T01:55:02;14.02;;;10.55;;
37609;SDS011;23457;51.966;8.230;2023-05-10T01:57:34;11.02;;;9.77;;
37609;SDS011;23457;51.966;8.230;2023-05-10T02:00:03;11.25;;;9.98;;
37609;SDS011;23457;51.966;8.230;2023-05-10T02:02:40;11.40;;;9.60;;
37609;SDS011;23457;51.966;8.230;2023-05-10T02:05:10;12.00;;;9.73;;
37609;SDS011;23457;51.966;8.230;2023-05-10T02:07:39;10.20;;;8.77;;
37609;SDS011;23457;51.966;8.230;2023-05-10T02:10:07;12.43;;;9.40;;
37609;SDS011;23457;51.966;8.230;2023-05-10T02:12:36;12.63;;;10.10;;
37609;SDS011;23457;51.966;8.230;2023-05-10T02:15:05;12.57;;;9.20;;
37609;SDS011;23457;51.966;8.230;2023-05-10T02:17:34;13.15;;;10.15;;
37609;SDS011;23457;51.966;8.230;2023-05-10T02:20:05;14.30;;;10.60;;
37609;SDS011;23457;51.966;8.230;2023-05-10T02:25:01;16.02;;;12.35;;
37609;SDS011;23457;51.966;8.230;2023-05-10T02:27:30;17.92;;;13.48;;
37609;SDS011;23457;51.966;8.230;2023-05-10T02:29:57;19.55;;;14.57;;
37609;SDS011;23457;51.966;8.230;2023-05-10T02:32:25;19.15;;;14.50;;
37609;SDS011;23457;51.966;8.230;2023-05-10T02:34:53;20.95;;;15.35;;
37609;SDS011;23457;51.966;8.230;2023-05-10T02:37:21;21.48;;;16.52;;
37609;SDS011;23457;51.966;8.230;2023-05-10T02:39:49;23.20;;;17.35;;
37609;SDS011;23457;51.966;8.230;2023-05-10T02:42:18;19.63;;;14.95;;
37609;SDS011;23457;51.966;8.230;2023-05-10T02:44:49;22.00;;;15.93;;
37609;SDS011;23457;51.966;8.230;2023-05-10T02:47:19;21.42;;;17.25;;
37609;SDS011;23457;51.966;8.230;2023-05-10T02:49:47;20.88;;;15.38;;
37609;SDS011;23457;51.966;8.230;2023-05-10T02:52:19;18.92;;;14.35;;
37609;SDS011;23457;51.966;8.230;2023-05-10T02:54:50;19.70;;;14.60;;
37609;SDS011;23457;51.966;8.230;2023-05-10T02:57:28;15.88;;;11.88;;
37609;SDS011;23457;51.966;8.230;2023-05-10T03:00:00;14.77;;;11.13;;
37609;SDS011;23457;51.966;8.230;2023-05-10T03:02:29;11.90;;;9.38;;
37609;SDS011;23457;51.966;8.230;2023-05-10T03:04:58;13.02;;;10.18;;
37609;SDS011;23457;51.966;8.230;2023-05-10T03:07:25;12.90;;;9.95;;
37609;SDS011;23457;51.966;8.230;2023-05-10T03:09:52;11.00;;;8.43;;
37609;SDS011;23457;51.966;8.230;2023-05-10T03:15:00;8.57;;;6.05;;
37609;SDS011;23457;51.966;8.230;2023-05-10T03:20:21;4.45;;;4.05;;
37609;SDS011;23457;51.966;8.230;2023-05-10T03:22:57;8.20;;;4.10;;
37609;SDS011;23457;51.966;8.230;2023-05-10T03:25:29;3.88;;;3.38;;
37609;SDS011;23457;51.966;8.230;2023-05-10T03:27:57;3.15;;;2.78;;
37609;SDS011;23457;51.966;8.230;2023-05-10T03:30:26;2.72;;;2.10;;
37609;SDS011;23457;51.966;8.230;2023-05-10T03:32:53;2.30;;;2.10;;
37609;SDS011;23457;51.966;8.230;2023-05-10T03:35:20;2.58;;;2.20;;
37609;SDS011;23457;51.966;8.230;2023-05-10T03:37:48;2.78;;;2.15;;
37609;SDS011;23457;51.966;8.230;2023-05-10T03:40:17;2.15;;;1.95;;
37609;SDS011;23457;51.966;8.230;2023-05-10T03:42:44;2.78;;;2.10;;
37609;SDS011;23457;51.966;8.230;2023-05-10T03:45:11;2.28;;;2.08;;
37609;SDS011;23457;51.966;8.230;2023-05-10T03:47:37;2.45;;;2.25;;
37609;SDS011;23457;51.966;8.230;2023-05-10T03:50:04;2.75;;;2.33;;
37609;SDS011;23457;51.966;8.230;2023-05-10T03:52:32;4.40;;;2.67;;
37609;SDS011;23457;51.966;8.230;2023-05-10T03:54:59;3.83;;;3.00;;
37609;SDS011;23457;51.966;8.230;2023-05-10T03:57:26;3.47;;;3.15;;
37609;SDS011;23457;51.966;8.230;2023-05-10T03:59:52;3.70;;;3.40;;
37609;SDS011;23457;51.966;8.230;2023-05-10T04:02:19;6.40;;;3.45;;
37609;SDS011;23457;51.966;8.230;2023-05-10T04:04:46;3.90;;;3.42;;
37609;SDS011;23457;51.966;8.230;2023-05-10T04:07:12;4.25;;;3.70;;
37609;SDS011;23457;51.966;8.230;2023-05-10T04:09:39;6.05;;;4.22;;
37609;SDS011;23457;51.966;8.230;2023-05-10T04:12:06;7.90;;;4.35;;
37609;SDS011;23457;51.966;8.230;2023-05-10T04:14:36;5.95;;;5.35;;
37609;SDS011;23457;51.966;8.230;2023-05-10T04:17:03;6.07;;;5.03;;
37609;SDS011;23457;51.966;8.230;2023-05-10T04:19:30;6.65;;;5.43;;
37609;SDS011;23457;51.966;8.230;2023-05-10T04:21:57;6.10;;;5.40;;
37609;SDS011;23457;51.966;8.230;2023-05-10T04:24:24;6.20;;;5.35;;
37609;SDS011;23457;51.966;8.230;2023-05-10T04:26:51;6.13;;;5.45;;
37609;SDS011;23457;51.966;8.230;2023-05-10T04:29:17;6.50;;;5.78;;
37609;SDS011;23457;51.966;8.230;2023-05-10T04:31:44;5.70;;;5.18;;
37609;SDS011;23457;51.966;8.230;2023-05-10T04:34:11;7.43;;;5.47;;
37609;SDS011;23457;51.966;8.230;2023-05-10T04:36:37;6.32;;;5.55;;
37609;SDS011;23457;51.966;8.230;2023-05-10T04:39:04;6.18;;;5.20;;
37609;SDS011;23457;51.966;8.230;2023-05-10T04:41:31;6.78;;;5.40;;
37609;SDS011;23457;51.966;8.230;2023-05-10T04:43:57;5.78;;;5.03;;
37609;SDS011;23457;51.966;8.230;2023-05-10T04:46:24;5.53;;;4.93;;
37609;SDS011;23457;51.966;8.230;2023-05-10T04:48:51;5.40;;;4.55;;
37609;SDS011;23457;51.966;8.230;2023-05-10T04:53:54;5.00;;;4.50;;
37609;SDS011;23457;51.966;8.230;2023-05-10T04:56:31;5.30;;;4.75;;
37609;SDS011;23457;51.966;8.230;2023-05-10T04:58:57;5.15;;;4.32;;
37609;SDS011;23457;51.966;8.230;2023-05-10T05:01:24;6.05;;;5.05;;
37609;SDS011;23457;51.966;8.230;2023-05-10T05:03:50;7.13;;;4.70;;
37609;SDS011;23457;51.966;8.230;2023-05-10T05:06:20;6.57;;;4.82;;
37609;SDS011;23457;51.966;8.230;2023-05-10T05:08:47;6.05;;;4.90;;
37609;SDS011;23457;51.966;8.230;2023-05-10T05:11:16;5.82;;;4.30;;
37609;SDS011;23457;51.966;8.230;2023-05-10T05:13:43;5.57;;;4.25;;
37609;SDS011;23457;51.966;8.230;2023-05-10T05:16:10;5.22;;;4.63;;
37609;SDS011;23457;51.966;8.230;2023-05-10T05:18:37;5.13;;;4.53;;
37609;SDS011;23457;51.966;8.230;2023-05-10T05:21:17;5.68;;;4.68;;
37609;SDS011;23457;51.966;8.230;2023-05-10T05:23:45;5.10;;;4.18;;
37609;SDS011;23457;51.966;8.230;2023-05-10T05:26:12;7.38;;;4.90;;
37609;SDS011;23457;51.966;8.230;2023-05-10T05:28:39;8.05;;;5.15;;
37609;SDS011;23457;51.966;8.230;2023-05-10T05:31:06;5.60;;;4.95;;
37609;SDS011;23457;51.966;8.230;2023-05-10T05:33:36;5.95;;;5.35;;
37609;SDS011;23457;51.966;8.230;2023-05-10T05:36:04;6.57;;;5.25;;
37609;SDS011;23457;51.966;8.230;2023-05-10T05:38:33;7.57;;;6.07;;
37609;SDS011;23457;51.966;8.230;2023-05-10T05:41:05;7.10;;;6.13;;
37609;SDS011;23457;51.966;8.230;2023-05-10T05:43:35;6.93;;;6.22;;
37609;SDS011;23457;51.966;8.230;2023-05-10T05:46:08;8.57;;;6.95;;
37609;SDS011;23457;51.966;8.230;2023-05-10T05:48:35;9.75;;;6.95;;
37609;SDS011;23457;51.966;8.230;2023-05-10T05:51:01;9.98;;;7.78;;
37609;SDS011;23457;51.966;8.230;2023-05-10T05:53:32;9.60;;;7.45;;
37609;SDS011;23457;51.966;8.230;2023-05-10T05:55:58;10.75;;;6.90;;
37609;SDS011;23457;51.966;8.230;2023-05-10T05:58:27;9.07;;;7.32;;
37609;SDS011;23457;51.966;8.230;2023-05-10T06:00:54;11.93;;;7.03;;
37609;SDS011;23457;51.966;8.230;2023-05-10T06:03:20;8.80;;;7.25;;
37609;SDS011;23457;51.966;8.230;2023-05-10T06:05:47;9.13;;;7.05;;
37609;SDS011;23457;51.966;8.230;2023-05-10T06:08:14;8.60;;;6.80;;
37609;SDS011;23457;51.966;8.230;2023-05-10T06:10:41;8.02;;;6.18;;
37609;SDS011;23457;51.966;8.230;2023-05-10T06:13:08;11.27;;;6.80;;
37609;SDS011;23457;51.966;8.230;2023-05-10T06:15:34;11.27;;;6.43;;
37609;SDS011;23457;51.966;8.230;2023-05-10T06:18:01;8.55;;;6.10;;
37609;SDS011;23457;51.966;8.230;2023-05-10T06:20:28;9.38;;;6.18;;
37609;SDS011;23457;51.966;8.230;2023-05-10T06:22:56;10.65;;;6.20;;
37609;SDS011;23457;51.966;8.230;2023-05-10T06:25:27;9.13;;;7.15;;
37609;SDS011;23457;51.966;8.230;2023-05-10T06:27:54;9.35;;;6.82;;
37609;SDS011;23457;51.966;8.230;2023-05-10T06:30:25;8.45;;;6.30;;
37609;SDS011;23457;51.966;8.230;2023-05-10T06:32:57;8.95;;;6.50;;
37609;SDS011;23457;51.966;8.230;2023-05-10T06:35:24;10.80;;;6.75;;
37609;SDS011;23457;51.966;8.230;2023-05-10T06:37:51;9.75;;;7.90;;
37609;SDS011;23457;51.966;8.230;2023-05-10T06:40:18;10.98;;;7.93;;
37609;SDS011;23457;51.966;8.230;2023-05-10T06:42:45;9.75;;;8.75;;
37609;SDS011;23457;51.966;8.230;2023-05-10T06:45:13;13.57;;;9.00;;
37609;SDS011;23457;51.966;8.230;2023-05-10T06:47:44;11.77;;;8.98;;
37609;SDS011;23457;51.966;8.230;2023-05-10T06:50:11;13.05;;;9.27;;
37609;SDS011;23457;51.966;8.230;2023-05-10T06:52:37;13.23;;;9.88;;
37609;SDS011;23457;51.966;8.230;2023-05-10T06:55:06;12.23;;;9.73;;
37609;SDS011;23457;51.966;8.230;2023-05-10T06:57:34;16.90;;;10.45;;
37609;SDS011;23457;51.966;8.230;2023-05-10T07:00:03;15.70;;;11.13;;
37609;SDS011;23457;51.966;8.230;2023-05-10T07:02:36;18.92;;;11.90;;
37609;SDS011;23457;51.966;8.230;2023-05-10T07:05:02;18.42;;;12.50;;
37609;SDS011;23457;51.966;8.230;2023-05-10T07:07:29;21.08;;;12.85;;
37609;SDS011;23457;51.966;8.230;2023-05-10T07:09:56;22.48;;;12.65;;
37609;SDS011;23457;51.966;8.230;2023-05-10T07:12:24;23.40;;;13.85;;
37609;SDS011;23457;51.966;8.230;2023-05-10T07:14:51;24.38;;;14.13;;
37609;SDS011;23457;51.966;8.230;2023-05-10T07:17:17;21.27;;;13.45;;
37609;SDS011;23457;51.966;8.230;2023-05-10T07:19:44;23.65;;;14.60;;
37609;SDS011;23457;51.966;8.230;2023-05-10T07:22:11;27.17;;;14.63;;
37609;SDS011;23457;51.966;8.230;2023-05-10T07:24:37;23.48;;;14.60;;
37609;SDS011;23457;51.966;8.230;2023-05-10T07:27:04;29.40;;;15.05;;
37609;SDS011;23457;51.966;8.230;2023-05-10T07:29:31;25.00;;;15.10;;
37609;SDS011;23457;51.966;8.230;2023-05-10T07:31:57;25.75;;;15.68;;
37609;SDS011;23457;51.966;8.230;2023-05-10T07:34:24;28.92;;;15.57;;
37609;SDS011;23457;51.966;8.230;2023-05-10T07:36:51;30.90;;;15.85;;
37609;SDS011;23457;51.966;8.230;2023-05-10T07:39:19;31.50;;;16.25;;
37609;SDS011;23457;51.966;8.230;2023-05-10T07:41:53;37.35;;;17.80;;
37609;SDS011;23457;51.966;8.230;2023-05-10T07:44:21;35.13;;;17.67;;
37609;SDS011;23457;51.966;8.230;2023-05-10T07:46:47;30.15;;;18.10;;
37609;SDS011;23457;51.966;8.230;2023-05-10T07:49:14;32.88;;;17.17;;
37609;SDS011;23457;51.966;8.230;2023-05-10T07:51:42;32.47;;;18.00;;
37609;SDS011;23457;51.966;8.230;2023-05-10T07:54:09;37.20;;;18.65;;
37609;SDS011;23457;51.966;8.230;2023-05-10T07:56:36;31.35;;;18.17;;
37609;SDS011;23457;51.966;8.230;2023-05-10T07:59:03;32.30;;;18.02;;
37609;SDS011;23457;51.966;8.230;2023-05-10T08:01:31;34.53;;;18.95;;
37609;SDS011;23457;51.966;8.230;2023-05-10T08:04:00;34.87;;;18.77;;
37609;SDS011;23457;51.966;8.230;2023-05-10T08:06:28;34.60;;;19.10;;
37609;SDS011;23457;51.966;8.230;2023-05-10T08:08:56;32.50;;;19.10;;
37609;SDS011;23457;51.966;8.230;2023-05-10T08:11:22;32.75;;;19.10;;
37609;SDS011;23457;51.966;8.230;2023-05-10T08:13:49;35.80;;;20.00;;
37609;SDS011;23457;51.966;8.230;2023-05-10T08:16:17;38.83;;;21.50;;
37609;SDS011;23457;51.966;8.230;2023-05-10T08:18:44;35.97;;;21.38;;
37609;SDS011;23457;51.966;8.230;2023-05-10T08:21:13;39.45;;;22.48;;
37609;SDS011;23457;51.966;8.230;2023-05-10T08:26:19;43.65;;;23.50;;
37609;SDS011;23457;51.966;8.230;2023-05-10T08:28:47;44.80;;;24.67;;
37609;SDS011;23457;51.966;8.230;2023-05-10T08:31:13;43.72;;;25.73;;
37609;SDS011;23457;51.966;8.230;2023-05-10T08:33:41;53.22;;;27.20;;
37609;SDS011;23457;51.966;8.230;2023-05-10T08:36:09;48.88;;;26.25;;
37609;SDS011;23457;51.966;8.230;2023-05-10T08:38:37;50.60;;;26.48;;
37609;SDS011;23457;51.966;8.230;2023-05-10T08:41:04;52.17;;;28.20;;
37609;SDS011;23457;51.966;8.230;2023-05-10T08:43:31;55.80;;;28.15;;
37609;SDS011;23457;51.966;8.230;2023-05-10T08:46:00;54.50;;;29.23;;
37609;SDS011;23457;51.966;8.230;2023-05-10T08:48:30;49.42;;;27.60;;
37609;SDS011;23457;51.966;8.230;2023-05-10T08:50:59;46.17;;;26.20;;
37609;SDS011;23457;51.966;8.230;2023-05-10T08:53:27;48.20;;;28.63;;
37609;SDS011;23457;51.966;8.230;2023-05-10T08:56:00;56.50;;;30.73;;
37609;SDS011;23457;51.966;8.230;2023-05-10T08:58:28;52.00;;;29.17;;
37609;SDS011;23457;51.966;8.230;2023-05-10T09:00:54;45.97;;;26.80;;
37609;SDS011;23457;51.966;8.230;2023-05-10T09:03:22;45.08;;;28.08;;
37609;SDS011;23457;51.966;8.230;2023-05-10T09:05:49;41.78;;;25.13;;
37609;SDS011;23457;51.966;8.230;2023-05-10T09:08:15;42.33;;;26.40;;
37609;SDS011;23457;51.966;8.230;2023-05-10T09:10:43;40.80;;;24.45;;
37609;SDS011;23457;51.966;8.230;2023-05-10T09:13:13;39.85;;;23.95;;
37609;SDS011;23457;51.966;8.230;2023-05-10T09:15:44;36.22;;;24.00;;
37609;SDS011;23457;51.966;8.230;2023-05-10T09:18:11;44.75;;;25.15;;
37609;SDS011;23457;51.966;8.230;2023-05-10T09:20:39;42.80;;;24.50;;
37609;SDS011;23457;51.966;8.230;2023-05-10T09:23:05;40.15;;;23.88;;
37609;SDS011;23457;51.966;8.230;2023-05-10T09:25:32;39.67;;;24.60;;
37609;SDS011;23457;51.966;8.230;2023-05-10T09:27:59;39.10;;;24.20;;
37609;SDS011;23457;51.966;8.230;2023-05-10T09:30:27;38.35;;;21.73;;
37609;SDS011;23457;51.966;8.230;2023-05-10T09:33:01;28.73;;;19.13;;
37609;SDS011;23457;51.966;8.230;2023-05-10T09:35:32;29.02;;;18.52;;
37609;SDS011;23457;51.966;8.230;2023-05-10T09:38:03;34.42;;;19.13;;
37609;SDS011;23457;51.966;8.230;2023-05-10T09:40:31;30.33;;;19.38;;
37609;SDS011;23457;51.966;8.230;2023-05-10T09:42:59;30.42;;;19.63;;
37609;SDS011;23457;51.966;8.230;2023-05-10T09:45:28;27.42;;;17.48;;
37609;SDS011;23457;51.966;8.230;2023-05-10T09:48:02;30.00;;;17.10;;
37609;SDS011;23457;51.966;8.230;2023-05-10T09:50:29;29.13;;;17.77;;
37609;SDS011;23457;51.966;8.230;2023-05-10T09:52:57;25.50;;;15.65;;
37609;SDS011;23457;51.966;8.230;2023-05-10T09:55:37;27.55;;;17.05;;
37609;SDS011;23457;51.966;8.230;2023-05-10T09:58:04;26.13;;;17.70;;
37609;SDS011;23457;51.966;8.230;2023-05-10T10:00:40;24.98;;;16.15;;
37609;SDS011;23457;51.966;8.230;2023-05-10T10:03:12;29.65;;;16.40;;
37609;SDS011;23457;51.966;8.230;2023-05-10T10:05:41;26.15;;;15.13;;
37609;SDS011;23457;51.966;8.230;2023-05-10T10:08:19;24.02;;;15.32;;
37609;SDS011;23457;51.966;8.230;2023-05-10T10:10:51;24.38;;;15.13;;
37609;SDS011;23457;51.966;8.230;2023-05-10T10:13:18;25.88;;;15.68;;
37609;SDS011;23457;51.966;8.230;2023-05-10T10:15:47;23.95;;;15.50;;
37609;SDS011;23457;51.966;8.230;2023-05-10T10:18:21;23.42;;;15.68;;
37609;SDS011;23457;51.966;8.230;2023-05-10T10:20:53;24.00;;;15.68;;
37609;SDS011;23457;51.966;8.230;2023-05-10T10:23:22;22.35;;;14.90;;
37609;SDS011;23457;51.966;8.230;2023-05-10T10:25:49;23.73;;;15.10;;
37609;SDS011;23457;51.966;8.230;2023-05-10T10:28:23;20.95;;;12.80;;
37609;SDS011;23457;51.966;8.230;2023-05-10T10:31:00;20.45;;;13.43;;
37609;SDS011;23457;51.966;8.230;2023-05-10T10:36:14;23.92;;;14.23;;
37609;SDS011;23457;51.966;8.230;2023-05-10T10:41:27;21.15;;;13.80;;
37609;SDS011;23457;51.966;8.230;2023-05-10T10:49:48;23.52;;;12.35;;
37609;SDS011;23457;51.966;8.230;2023-05-10T10:57:27;18.15;;;11.88;;
37609;SDS011;23457;51.966;8.230;2023-05-10T11:02:44;18.55;;;12.48;;
37609;SDS011;23457;51.966;8.230;2023-05-10T11:11:04;17.45;;;11.07;;
37609;SDS011;23457;51.966;8.230;2023-05-10T11:13:45;14.20;;;9.52;;
37609;SDS011;23457;51.966;8.230;2023-05-10T11:19:03;19.58;;;11.40;;
37609;SDS011;23457;51.966;8.230;2023-05-10T11:21:33;19.35;;;11.30;;
37609;SDS011;23457;51.966;8.230;2023-05-10T11:24:14;16.35;;;11.57;;
37609;SDS011;23457;51.966;8.230;2023-05-10T11:26:45;19.13;;;11.90;;
37609;SDS011;23457;51.966;8.230;2023-05-10T11:29:12;22.33;;;11.88;;
37609;SDS011;23457;51.966;8.230;2023-05-10T11:31:43;21.90;;;13.00;;
37609;SDS011;23457;51.966;8.230;2023-05-10T11:34:11;22.30;;;13.23;;
37609;SDS011;23457;51.966;8.230;2023-05-10T11:36:51;22.38;;;13.13;;
37609;SDS011;23457;51.966;8.230;2023-05-10T11:39:24;21.42;;;13.95;;
37609;SDS011;23457;51.966;8.230;2023-05-10T11:41:53;23.25;;;14.40;;
37609;SDS011;23457;51.966;8.230;2023-05-10T11:44:20;22.45;;;13.45;;
37609;SDS011;23457;51.966;8.230;2023-05-10T11:46:47;21.90;;;13.05;;
37609;SDS011;23457;51.966;8.230;2023-05-10T11:49:15;23.48;;;14.38;;
37609;SDS011;23457;51.966;8.230;2023-05-10T11:51:42;21.23;;;13.10;;
37609;SDS011;23457;51.966;8.230;2023-05-10T11:54:10;21.05;;;12.55;;
37609;SDS011;23457;51.966;8.230;2023-05-10T11:56:40;21.70;;;13.35;;
37609;SDS011;23457;51.966;8.230;2023-05-10T11:59:07;24.40;;;14.02;;
37609;SDS011;23457;51.966;8.230;2023-05-10T12:01:34;22.95;;;13.60;;
37609;SDS011;23457;51.966;8.230;2023-05-10T12:04:02;21.65;;;12.73;;
37609;SDS011;23457;51.966;8.230;2023-05-10T12:06:30;23.00;;;12.52;;
37609;SDS011;23457;51.966;8.230;2023-05-10T12:09:09;20.40;;;13.50;;
37609;SDS011;23457;51.966;8.230;2023-05-10T12:11:37;23.05;;;13.38;;
37609;SDS011;23457;51.966;8.230;2023-05-10T12:14:09;26.00;;;14.32;;
37609;SDS011;23457;51.966;8.230;2023-05-10T12:16:36;25.50;;;14.73;;
37609;SDS011;23457;51.966;8.230;2023-05-10T12:19:03;26.20;;;14.32;;
37609;SDS011;23457;51.966;8.230;2023-05-10T12:21:32;23.23;;;14.68;;
37609;SDS011;23457;51.966;8.230;2023-05-10T12:24:01;30.58;;;14.70;;
37609;SDS011;23457;51.966;8.230;2023-05-10T12:26:29;22.58;;;15.50;;
37609;SDS011;23457;51.966;8.230;2023-05-10T12:29:12;20.45;;;15.75;;
37609;SDS011;23457;51.966;8.230;2023-05-10T12:31:58;24.85;;;15.32;;
37609;SDS011;23457;51.966;8.230;2023-05-10T12:39:41;24.80;;;15.40;;
37609;SDS011;23457;51.966;8.230;2023-05-10T12:42:09;30.90;;;17.20;;
37609;SDS011;23457;51.966;8.230;2023-05-10T12:44:36;25.73;;;15.65;;
37609;SDS011;23457;51.966;8.230;2023-05-10T12:47:03;26.83;;;16.92;;
37609;SDS011;23457;51.966;8.230;2023-05-10T12:49:30;31.65;;;19.35;;
37609;SDS011;23457;51.966;8.230;2023-05-10T12:51:56;31.92;;;18.05;;
37609;SDS011;23457;51.966;8.230;2023-05-10T12:54:23;31.10;;;17.42;;
37609;SDS011;23457;51.966;8.230;2023-05-10T12:56:50;29.85;;;17.40;;
37609;SDS011;23457;51.966;8.230;2023-05-10T12:59:18;26.88;;;16.48;;
37609;SDS011;23457;51.966;8.230;2023-05-10T13:01:44;29.77;;;19.02;;
37609;SDS011;23457;51.966;8.230;2023-05-10T13:04:11;31.33;;;18.40;;
37609;SDS011;23457;51.966;8.230;2023-05-10T13:06:38;29.05;;;16.92;;
37609;SDS011;23457;51.966;8.230;2023-05-10T13:09:05;31.83;;;18.40;;
37609;SDS011;23457;51.966;8.230;2023-05-10T13:11:31;35.33;;;20.00;;
37609;SDS011;23457;51.966;8.230;2023-05-10T13:13:59;36.05;;;21.27;;
37609;SDS011;23457;51.966;8.230;2023-05-10T13:16:32;36.17;;;20.08;;
37609;SDS011;23457;51.966;8.230;2023-05-10T13:19:00;34.10;;;19.80;;
37609;SDS011;23457;51.966;8.230;2023-05-10T13:21:26;32.78;;;20.02;;
37609;SDS011;23457;51.966;8.230;2023-05-10T13:23:54;31.08;;;19.88;;
37609;SDS011;23457;51.966;8.230;2023-05-10T13:26:20;30.98;;;19.63;;
37609;SDS011;23457;51.966;8.230;2023-05-10T13:28:47;30.48;;;17.88;;
37609;SDS011;23457;51.966;8.230;2023-05-10T13:31:15;26.73;;;17.73;;
37609;SDS011;23457;51.966;8.230;2023-05-10T13:33:42;26.70;;;16.95;;
37609;SDS011;23457;51.966;8.230;2023-05-10T13:36:08;27.70;;;17.52;;
37609;SDS011;23457;51.966;8.230;2023-05-10T13:38:35;22.38;;;15.30;;
37609;SDS011;23457;51.966;8.230;2023-05-10T13:41:02;19.80;;;13.38;;
37609;SDS011;23457;51.966;8.230;2023-05-10T13:43:29;19.40;;;12.80;;
37609;SDS011;23457;51.966;8.230;2023-05-10T13:45:56;23.80;;;15.00;;
37609;SDS011;23457;51.966;8.230;2023-05-10T13:48:23;23.33;;;15.30;;
37609;SDS011;23457;51.966;8.230;2023-05-10T13:50:49;25.63;;;15.38;;
37609;SDS011;23457;51.966;8.230;2023-05-10T13:53:16;24.48;;;15.88;;
37609;SDS011;23457;51.966;8.230;2023-05-10T13:55:43;28.40;;;15.85;;
37609;SDS011;23457;51.966;8.230;2023-05-10T13:58:09;27.38;;;17.30;;
37609;SDS011;23457;51.966;8.230;2023-05-10T14:00:36;28.00;;;17.63;;
37609;SDS011;23457;51.966;8.230;2023-05-10T14:03:03;23.27;;;16.65;;
37609;SDS011;23457;51.966;8.230;2023-05-10T14:05:31;24.60;;;17.38;;
37609;SDS011;23457;51.966;8.230;2023-05-10T14:07:58;28.02;;;18.67;;
37609;SDS011;23457;51.966;8.230;2023-05-10T14:10:24;25.27;;;18.42;;
37609;SDS011;23457;51.966;8.230;2023-05-10T14:12:51;28.67;;;17.88;;
37609;SDS011;23457;51.966;8.230;2023-05-10T14:15:18;27.70;;;18.23;;
37609;SDS011;23457;51.966;8.230;2023-05-10T14:17:45;29.85;;;18.85;;
37609;SDS011;23457;51.966;8.230;2023-05-10T14:20:12;25.80;;;19.08;;
37609;SDS011;23457;51.966;8.230;2023-05-10T14:22:39;31.77;;;19.42;;
37609;SDS011;23457;51.966;8.230;2023-05-10T14:25:06;29.20;;;18.23;;
37609;SDS011;23457;51.966;8.230;2023-05-10T14:27:36;27.05;;;18.10;;
37609;SDS011;23457;51.966;8.230;2023-05-10T14:30:03;26.60;;;17.50;;
37609;SDS011;23457;51.966;8.230;2023-05-10T14:32:30;27.40;;;17.70;;
37609;SDS011;23457;51.966;8.230;2023-05-10T14:34:58;22.80;;;17.20;;
37609;SDS011;23457;51.966;8.230;2023-05-10T14:37:27;25.15;;;18.10;;
37609;SDS011;23457;51.966;8.230;2023-05-10T14:39:57;22.90;;;16.63;;
37609;SDS011;23457;51.966;8.230;2023-05-10T14:42:24;28.52;;;17.77;;
37609;SDS011;23457;51.966;8.230;2023-05-10T14:44:50;24.27;;;16.00;;
37609;SDS011;23457;51.966;8.230;2023-05-10T14:47:17;26.60;;;16.02;;
37609;SDS011;23457;51.966;8.230;2023-05-10T14:49:44;24.98;;;15.70;;
37609;SDS011;23457;51.966;8.230;2023-05-10T14:52:10;19.58;;;14.40;;
37609;SDS011;23457;51.966;8.230;2023-05-10T14:54:38;23.85;;;15.25;;
37609;SDS011;23457;51.966;8.230;2023-05-10T14:57:05;21.88;;;14.45;;
37609;SDS011;23457;51.966;8.230;2023-05-10T14:59:32;20.75;;;14.93;;
37609;SDS011;23457;51.966;8.230;2023-05-10T15:01:59;22.27;;;15.13;;
37609;SDS011;23457;51.966;8.230;2023-05-10T15:04:26;22.83;;;15.60;;
37609;SDS011;23457;51.966;8.230;2023-05-10T15:06:54;23.40;;;16.20;;
37609;SDS011;23457;51.966;8.230;2023-05-10T15:09:27;24.05;;;15.23;;
37609;SDS011;23457;51.966;8.230;2023-05-10T15:11:54;11.90;;;7.60;;
37609;SDS011;23457;51.966;8.230;2023-05-10T15:14:21;7.88;;;5.45;;
37609;SDS011;23457;51.966;8.230;2023-05-10T15:16:50;10.38;;;6.35;;
37609;SDS011;23457;51.966;8.230;2023-05-10T15:19:17;18.58;;;8.52;;
37609;SDS011;23457;51.966;8.230;2023-05-10T15:21:43;14.43;;;9.70;;
37609;SDS011;23457;51.966;8.230;2023-05-10T15:24:17;19.58;;;12.80;;
37609;SDS011;23457;51.966;8.230;2023-05-10T15:26:52;21.90;;;13.95;;
37609;SDS011;23457;51.966;8.230;2023-05-10T15:29:20;25.20;;;15.70;;
37609;SDS011;23457;51.966;8.230;2023-05-10T15:31:47;27.63;;;16.30;;
37609;SDS011;23457;51.966;8.230;2023-05-10T15:34:18;29.08;;;17.15;;
37609;SDS011;23457;51.966;8.230;2023-05-10T15:36:45;33.35;;;18.58;;
37609;SDS011;23457;51.966;8.230;2023-05-10T15:39:11;35.22;;;19.90;;